createdAt,value
2019-03-27T00:03:02.041Z,5.419312
2019-03-27T00:08:24.773Z,5.39917
2019-03-27T00:13:48.117Z,5.328674
2019-03-27T00:19:10.839Z,5.379028
2019-03-27T00:24:34.974Z,5.560303
2019-03-27T00:29:57.573Z,5.580444
2019-03-27T00:35:20.737Z,5.620728
2019-03-27T00:40:44.306Z,5.620728
2019-03-27T00:46:06.952Z,5.600586
2019-03-27T00:51:29.674Z,5.590515
2019-03-27T00:56:52.372Z,5.65094
2019-03-27T01:02:15.053Z,5.691223
2019-03-27T01:07:38.696Z,5.671082
2019-03-27T01:13:01.421Z,5.661011
2019-03-27T01:18:24.209Z,5.741577
2019-03-27T01:23:46.975Z,5.731506
2019-03-27T01:29:10.347Z,5.661011
2019-03-27T01:34:33.730Z,5.560303
2019-03-27T01:39:56.451Z,5.489807
2019-03-27T01:45:19.319Z,5.479736
2019-03-27T01:50:42.621Z,5.449524
2019-03-27T01:56:06.307Z,5.439453
2019-03-27T02:01:28.980Z,5.560303
2019-03-27T02:06:51.654Z,5.620728
2019-03-27T02:12:14.373Z,5.661011
2019-03-27T02:17:37.042Z,5.620728
2019-03-27T02:23:00.841Z,5.620728
2019-03-27T02:28:23.542Z,5.600586
2019-03-27T02:33:46.316Z,5.560303
2019-03-27T02:39:09.111Z,5.550232
2019-03-27T02:44:31.783Z,5.52002
2019-03-27T02:49:54.608Z,5.469666
2019-03-27T02:55:17.527Z,5.439453
2019-03-27T03:00:40.181Z,5.449524
2019-03-27T03:06:03.331Z,5.479736
2019-03-27T03:11:25.994Z,5.479736
2019-03-27T03:16:48.824Z,5.409241
2019-03-27T03:22:12.510Z,5.328674
2019-03-27T03:27:36.215Z,5.227966
2019-03-27T03:32:58.915Z,5.167542
2019-03-27T03:38:21.676Z,5.1474
2019-03-27T03:43:45.801Z,5.217896
2019-03-27T03:49:09.428Z,5.217896
2019-03-27T03:54:32.798Z,5.187683
2019-03-27T03:59:55.496Z,5.167542
2019-03-27T04:05:18.462Z,5.197754
2019-03-27T04:10:41.726Z,5.197754
2019-03-27T04:16:04.647Z,5.197754
2019-03-27T04:21:28.498Z,5.217896
2019-03-27T04:26:51.130Z,5.197754
2019-03-27T04:32:13.952Z,5.1474
2019-03-27T04:37:38.006Z,5.167542
2019-03-27T04:43:01.094Z,5.167542
2019-03-27T04:48:23.960Z,5.187683
2019-03-27T04:53:46.694Z,5.227966
2019-03-27T04:59:09.524Z,5.227966
2019-03-27T05:04:32.569Z,5.167542
2019-03-27T05:09:55.388Z,5.1474
2019-03-27T05:15:18.210Z,5.167542
2019-03-27T05:20:41.111Z,5.187683
2019-03-27T05:26:03.956Z,5.227966
2019-03-27T05:31:26.612Z,5.238037
2019-03-27T05:36:49.361Z,5.288391
2019-03-27T05:42:12.208Z,5.227966
2019-03-27T05:47:34.916Z,5.217896
2019-03-27T05:52:57.646Z,5.197754
2019-03-27T05:58:20.388Z,5.238037
2019-03-27T06:03:43.147Z,5.217896
2019-03-27T06:09:05.905Z,5.258179
2019-03-27T06:14:28.593Z,5.238037
2019-03-27T06:19:51.328Z,5.227966
2019-03-27T06:25:15.043Z,5.167542
2019-03-27T06:30:37.738Z,5.016479
2019-03-27T06:36:00.393Z,4.905701
2019-03-27T06:41:23.061Z,5.076904
2019-03-27T06:46:45.801Z,5.26825
2019-03-27T06:52:08.549Z,5.419312
2019-03-27T06:57:31.321Z,5.77179
2019-03-27T07:02:54.026Z,5.77179
2019-03-27T07:08:16.713Z,5.802002
2019-03-27T07:13:39.394Z,5.983276
2019-03-27T07:19:02.177Z,6.396179
2019-03-27T07:24:24.831Z,6.416321
2019-03-27T07:29:47.648Z,6.53717
2019-03-27T07:35:10.430Z,6.355896
2019-03-27T07:40:33.236Z,6.607666
2019-03-27T07:45:55.975Z,6.758728
2019-03-27T07:51:18.636Z,6.567383
2019-03-27T07:56:41.390Z,6.819153
2019-03-27T08:02:04.029Z,7.000427
2019-03-27T08:07:27.316Z,7.151489
2019-03-27T08:12:49.440Z,7.232056
2019-03-27T08:18:12.115Z,7.685242
2019-03-27T08:23:34.733Z,8.118286
2019-03-27T08:28:57.375Z,8.03772
2019-03-27T08:34:20.065Z,8.450623
2019-03-27T08:39:42.772Z,8.057861
2019-03-27T08:45:05.446Z,8.863525
2019-03-27T08:50:28.119Z,9.497986
2019-03-27T08:55:50.778Z,9.145508
2019-03-27T09:01:13.433Z,8.712463
2019-03-27T09:06:36.293Z,8.934021
2019-03-27T09:11:58.940Z,8.450623
2019-03-27T09:17:21.751Z,8.732605
2019-03-27T09:22:45.610Z,8.521118
2019-03-27T09:28:08.430Z,10.011597
2019-03-27T09:33:31.093Z,9.346924
2019-03-27T09:38:53.814Z,9.830322
2019-03-27T09:44:16.470Z,10.072021
2019-03-27T09:49:49.195Z,9.769897
2019-03-27T09:55:02.995Z,10.142517
2019-03-27T10:00:25.726Z,9.618835
2019-03-27T10:05:48.386Z,10.243225
2019-03-27T10:11:11.080Z,10.354004
2019-03-27T10:16:33.743Z,10.011597
2019-03-27T10:21:56.476Z,10.283508
2019-03-27T10:27:19.200Z,11.260376
2019-03-27T10:32:41.872Z,11.421509
2019-03-27T10:38:04.605Z,11.109314
2019-03-27T10:43:27.199Z,11.602783
2019-03-27T10:48:52.695Z,11.93512
2019-03-27T10:54:12.684Z,12.589722
2019-03-27T10:59:35.363Z,12.378235
2019-03-27T11:04:58.033Z,11.31073
2019-03-27T11:10:20.698Z,11.622925
2019-03-27T11:15:43.421Z,10.797119
2019-03-27T11:21:06.208Z,11.572571
2019-03-27T11:26:28.915Z,11.884766
2019-03-27T11:31:51.700Z,12.337952
2019-03-27T11:37:14.473Z,12.559509
2019-03-27T11:42:37.140Z,13.042908
2019-03-27T11:47:59.823Z,13.929138
2019-03-27T11:53:22.555Z,13.506165
2019-03-27T11:58:45.294Z,12.922058
2019-03-27T12:04:08.111Z,12.076111
2019-03-27T12:09:30.898Z,12.851562
2019-03-27T12:14:53.528Z,12.287598
2019-03-27T12:20:19.784Z,12.791138
2019-03-27T12:25:42.667Z,13.939209
2019-03-27T12:31:05.371Z,13.103333
2019-03-27T12:36:29.008Z,13.465881
2019-03-27T12:41:51.731Z,12.911987
2019-03-27T12:47:14.446Z,13.07312
2019-03-27T12:52:37.324Z,13.042908
2019-03-27T12:57:59.971Z,12.297668
2019-03-27T13:03:23.606Z,12.670288
2019-03-27T13:08:49.321Z,13.939209
2019-03-27T13:14:09.053Z,14.906006
2019-03-27T13:19:31.744Z,14.160767
2019-03-27T13:24:54.517Z,14.744873
2019-03-27T13:30:17.213Z,13.435669
2019-03-27T13:35:39.863Z,12.801208
2019-03-27T13:41:02.522Z,13.536377
2019-03-27T13:46:25.230Z,14.060059
2019-03-27T13:51:47.964Z,13.959351
2019-03-27T13:57:10.619Z,13.214111
2019-03-27T14:02:33.326Z,12.851562
2019-03-27T14:07:56.052Z,12.770996
2019-03-27T14:13:19.651Z,12.287598
2019-03-27T14:18:42.301Z,12.06604
2019-03-27T14:24:05.075Z,11.784058
2019-03-27T14:29:27.786Z,12.035828
2019-03-27T14:34:53.727Z,12.005615
2019-03-27T14:40:13.241Z,12.307739
2019-03-27T14:45:35.913Z,12.579651
2019-03-27T14:50:58.607Z,12.710571
2019-03-27T14:56:21.785Z,12.025757
2019-03-27T15:01:44.576Z,12.156677
2019-03-27T15:07:07.236Z,12.378235
2019-03-27T15:12:30.894Z,12.307739
2019-03-27T15:17:53.615Z,11.824341
2019-03-27T15:23:16.459Z,12.126465
2019-03-27T15:28:39.193Z,12.126465
2019-03-27T15:34:02.817Z,12.207031
2019-03-27T15:39:25.500Z,12.146606
2019-03-27T15:44:49.711Z,11.723633
2019-03-27T15:50:11.094Z,11.643066
2019-03-27T15:55:34.777Z,11.723633
2019-03-27T16:00:57.630Z,11.81427
2019-03-27T16:06:20.417Z,11.784058
2019-03-27T16:11:43.062Z,11.643066
2019-03-27T16:17:13.055Z,11.572571
2019-03-27T16:22:29.139Z,11.572571
2019-03-27T16:27:53.842Z,11.461792
2019-03-27T16:33:16.494Z,11.451721
2019-03-27T16:38:39.147Z,11.381226
2019-03-27T16:44:01.957Z,11.31073
2019-03-27T16:49:24.627Z,11.31073
2019-03-27T16:54:47.276Z,11.260376
2019-03-27T17:00:09.964Z,11.119385
2019-03-27T17:05:32.618Z,11.089172
2019-03-27T17:10:56.285Z,10.988464
2019-03-27T17:16:19.002Z,10.907898
2019-03-27T17:21:41.670Z,10.93811
2019-03-27T17:27:04.469Z,10.897827
2019-03-27T17:32:27.216Z,10.80719
2019-03-27T17:37:49.976Z,10.797119
2019-03-27T17:43:12.721Z,10.867615
2019-03-27T17:48:35.346Z,10.797119
2019-03-27T17:53:58.096Z,10.68634
2019-03-27T17:59:21.844Z,10.575562
2019-03-27T18:04:44.652Z,10.656128
2019-03-27T18:10:07.423Z,10.505066
2019-03-27T18:15:30.153Z,10.354004
2019-03-27T18:20:52.907Z,10.656128
2019-03-27T18:26:15.603Z,10.615845
2019-03-27T18:31:38.297Z,10.535278
2019-03-27T18:37:00.957Z,10.494995
2019-03-27T18:42:24.971Z,10.464783
2019-03-27T18:47:48.225Z,10.444641
2019-03-27T18:53:11.098Z,10.364075
2019-03-27T18:58:33.852Z,10.464783
2019-03-27T19:03:56.637Z,10.384216
2019-03-27T19:09:19.825Z,10.323792
2019-03-27T19:14:42.453Z,10.293579
2019-03-27T19:20:05.211Z,10.323792
2019-03-27T19:25:28.080Z,10.283508
2019-03-27T19:30:50.785Z,10.293579
2019-03-27T19:36:13.538Z,10.313721
2019-03-27T19:41:36.317Z,10.223083
2019-03-27T19:46:59.052Z,10.142517
2019-03-27T19:52:22.965Z,10.142517
2019-03-27T19:57:45.953Z,10.092163
2019-03-27T20:03:08.874Z,10.112305
2019-03-27T20:08:31.614Z,9.991455
2019-03-27T20:13:55.086Z,9.961243
2019-03-27T20:19:17.863Z,9.991455
2019-03-27T20:24:41.404Z,10.021667
2019-03-27T20:30:05.022Z,9.951172
2019-03-27T20:35:27.744Z,9.890747
2019-03-27T20:40:50.502Z,9.890747
2019-03-27T20:46:24.270Z,9.830322
2019-03-27T20:51:36.956Z,9.860535
2019-03-27T20:56:59.685Z,9.810181
2019-03-27T21:02:22.439Z,9.739685
2019-03-27T21:07:45.266Z,9.618835
2019-03-27T21:13:08.430Z,9.628906
2019-03-27T21:18:31.037Z,9.598694
2019-03-27T21:23:54.889Z,9.558411
2019-03-27T21:29:17.824Z,9.497986
2019-03-27T21:34:41.891Z,9.367065
2019-03-27T21:40:04.745Z,9.417419
2019-03-27T21:45:27.437Z,9.377136
2019-03-27T21:50:50.202Z,9.407349
2019-03-27T21:56:12.893Z,9.346924
2019-03-27T22:01:36.513Z,9.226074
2019-03-27T22:06:59.287Z,9.075012
2019-03-27T22:12:21.971Z,9.034729
2019-03-27T22:17:45.622Z,9.075012
2019-03-27T22:23:09.038Z,9.0448
2019-03-27T22:28:31.763Z,8.984375
2019-03-27T22:33:54.555Z,8.883667
2019-03-27T22:39:17.287Z,9.064941
2019-03-27T22:44:40.007Z,9.075012
2019-03-27T22:50:02.737Z,8.833313
2019-03-27T22:55:25.497Z,8.762817
2019-03-27T23:00:48.264Z,8.611755
2019-03-27T23:06:10.974Z,8.521118
2019-03-27T23:11:33.737Z,8.359985
2019-03-27T23:16:56.559Z,8.138428
2019-03-27T23:22:19.360Z,8.067932
2019-03-27T23:27:42.116Z,8.03772
2019-03-27T23:33:04.881Z,7.91687
2019-03-27T23:38:27.662Z,7.906799
2019-03-27T23:43:50.355Z,7.886658
2019-03-27T23:49:13.198Z,7.765808
2019-03-27T23:54:35.921Z,7.695312
2019-03-27T23:59:58.688Z,7.6651
